createdAt,value
2023-01-29T00:00:20.946Z,88.51
2023-01-29T00:02:47.858Z,89.13
2023-01-29T00:05:27.034Z,89.17
2023-01-29T00:07:56.208Z,90.32
2023-01-29T00:10:24.211Z,89.95
2023-01-29T00:12:51.806Z,90.21
2023-01-29T00:15:18.680Z,89.78
2023-01-29T00:17:45.193Z,89.56
2023-01-29T00:20:12.152Z,89.54
2023-01-29T00:22:38.666Z,89.34
2023-01-29T00:25:05.627Z,88.54
2023-01-29T00:27:32.156Z,88.47
2023-01-29T00:30:13.127Z,89.23
2023-01-29T00:32:40.777Z,90.80
2023-01-29T00:35:08.579Z,89.58
2023-01-29T00:37:35.701Z,89.47
2023-01-29T00:40:02.232Z,89.97
2023-01-29T00:42:47.252Z,88.11
2023-01-29T00:45:13.857Z,87.83
2023-01-29T00:47:40.495Z,88.26
2023-01-29T00:50:10.848Z,87.46
2023-01-29T00:52:38.521Z,87.37
2023-01-29T00:55:06.914Z,87.02
2023-01-29T00:57:35.168Z,88.52
2023-01-29T01:00:02.462Z,90.17
2023-01-29T01:02:47.748Z,89.42
2023-01-29T01:05:19.735Z,88.26
2023-01-29T01:07:52.164Z,89.13
2023-01-29T01:10:28.805Z,90.99
2023-01-29T01:12:56.907Z,90.15
2023-01-29T01:15:25.619Z,92.17
2023-01-29T01:17:57.447Z,90.27
2023-01-29T01:20:24.908Z,90.08
2023-01-29T01:22:53.184Z,89.15
2023-01-29T01:25:20.057Z,89.62
2023-01-29T01:27:46.889Z,90.17
2023-01-29T01:30:16.552Z,87.98
2023-01-29T01:32:43.359Z,87.67
2023-01-29T01:35:11.172Z,88.33
2023-01-29T01:37:38.749Z,87.62
2023-01-29T01:40:12.809Z,87.39
2023-01-29T01:42:40.488Z,87.23
2023-01-29T01:45:17.685Z,87.58
2023-01-29T01:47:48.941Z,86.60
2023-01-29T01:50:21.980Z,88.15
2023-01-29T01:52:54.790Z,87.37
2023-01-29T01:55:26.379Z,88.42
2023-01-29T01:57:57.566Z,89.35
2023-01-29T02:00:26.096Z,88.72
2023-01-29T02:03:12.380Z,88.14
2023-01-29T02:05:58.599Z,87.93
2023-01-29T02:08:54.634Z,89.04
2023-01-29T02:11:21.169Z,89.13
2023-01-29T02:13:53.654Z,87.71
2023-01-29T02:16:21.999Z,88.22
2023-01-29T02:18:49.618Z,88.66
2023-01-29T02:21:51.536Z,89.12
2023-01-29T02:24:49.037Z,89.46
2023-01-29T02:27:20.877Z,90.54
2023-01-29T02:29:57.255Z,89.36
2023-01-29T02:32:23.721Z,90.39
2023-01-29T02:35:20.622Z,90.20
2023-01-29T02:38:02.220Z,91.03
2023-01-29T02:41:02.244Z,88.65
2023-01-29T02:43:43.789Z,88.65
2023-01-29T02:46:13.041Z,88.92
2023-01-29T02:49:07.484Z,88.84
2023-01-29T02:51:36.832Z,89.12
2023-01-29T02:54:22.159Z,89.50
2023-01-29T02:56:55.843Z,88.90
2023-01-29T02:59:41.110Z,88.95
2023-01-29T03:02:24.164Z,88.99
2023-01-29T03:04:58.490Z,89.11
2023-01-29T03:07:45.065Z,89.49
2023-01-29T03:10:17.741Z,90.04
2023-01-29T03:12:49.489Z,90.78
2023-01-29T03:15:28.538Z,90.42
2023-01-29T03:18:03.919Z,89.63
2023-01-29T03:20:36.761Z,90.37
2023-01-29T03:23:11.509Z,89.95
2023-01-29T03:26:00.111Z,91.63
2023-01-29T03:28:48.399Z,92.04
2023-01-29T03:31:36.176Z,92.82
2023-01-29T03:34:28.581Z,92.40
2023-01-29T03:37:00.105Z,95.43
2023-01-29T03:39:28.663Z,95.86
2023-01-29T03:42:02.665Z,96.85
2023-01-29T03:44:48.983Z,98.24
2023-01-29T03:47:20.757Z,96.94
2023-01-29T03:49:54.733Z,98.22
2023-01-29T03:52:39.179Z,98.23
2023-01-29T03:55:24.957Z,99.68
2023-01-29T03:58:15.919Z,100.00
2023-01-29T04:00:52.617Z,100.00
2023-01-29T04:03:19.102Z,100.00
2023-01-29T04:06:13.806Z,100.00
2023-01-29T04:09:05.987Z,100.00
2023-01-29T04:11:36.211Z,100.00
2023-01-29T04:14:03.239Z,100.00
2023-01-29T04:16:35.664Z,100.00
2023-01-29T04:19:02.443Z,100.00
2023-01-29T04:21:31.909Z,100.00
2023-01-29T04:23:58.507Z,100.00
2023-01-29T04:26:51.209Z,99.79
2023-01-29T04:29:38.554Z,100.00
2023-01-29T04:32:24.443Z,99.56
2023-01-29T04:34:51.760Z,99.32
2023-01-29T04:37:19.244Z,98.86
2023-01-29T04:40:22.712Z,100.00
2023-01-29T04:43:14.230Z,98.14
2023-01-29T04:46:17.668Z,98.41
2023-01-29T04:48:50.281Z,97.47
2023-01-29T04:51:33.094Z,96.93
2023-01-29T04:53:59.996Z,97.94
2023-01-29T04:56:42.171Z,97.22
2023-01-29T04:59:14.666Z,97.30
2023-01-29T05:01:41.468Z,96.56
2023-01-29T05:04:13.435Z,96.74
2023-01-29T05:06:41.545Z,97.26
2023-01-29T05:09:09.707Z,97.71
2023-01-29T05:11:37.797Z,97.12
2023-01-29T05:14:09.009Z,95.72
2023-01-29T05:16:44.693Z,95.94
2023-01-29T05:19:16.326Z,96.31
2023-01-29T05:21:46.167Z,95.60
2023-01-29T05:24:16.964Z,96.50
2023-01-29T05:27:04.412Z,95.95
2023-01-29T05:29:31.119Z,95.89
2023-01-29T05:31:57.766Z,96.50
2023-01-29T05:34:24.459Z,97.32
2023-01-29T05:36:51.163Z,96.76
2023-01-29T05:39:18.007Z,96.79
2023-01-29T05:41:44.604Z,96.68
2023-01-29T05:44:11.393Z,96.56
2023-01-29T05:46:38.612Z,97.19
2023-01-29T05:49:06.024Z,96.80
2023-01-29T05:51:32.779Z,96.06
2023-01-29T05:53:59.284Z,95.17
2023-01-29T05:56:25.859Z,96.59
2023-01-29T05:58:52.639Z,96.99
2023-01-29T06:01:22.594Z,97.11
2023-01-29T06:03:49.609Z,97.68
2023-01-29T06:06:16.645Z,96.45
2023-01-29T06:08:43.730Z,97.14
2023-01-29T06:11:13.112Z,97.64
2023-01-29T06:13:39.854Z,96.05
2023-01-29T06:16:10.395Z,97.20
2023-01-29T06:18:37.329Z,97.48
2023-01-29T06:21:05.836Z,96.27
2023-01-29T06:23:32.922Z,95.38
2023-01-29T06:26:19.844Z,94.71
2023-01-29T06:28:48.446Z,96.48
2023-01-29T06:31:33.097Z,96.01
2023-01-29T06:34:01.655Z,95.54
2023-01-29T06:36:28.261Z,95.58
2023-01-29T06:38:55.986Z,95.80
2023-01-29T06:41:25.606Z,97.40
2023-01-29T06:43:52.684Z,95.20
2023-01-29T06:46:19.344Z,95.69
2023-01-29T06:48:45.957Z,95.81
2023-01-29T06:51:12.552Z,95.11
2023-01-29T06:53:39.651Z,94.63
2023-01-29T06:56:06.980Z,95.28
2023-01-29T06:58:33.583Z,93.70
2023-01-29T07:01:17.374Z,92.64
2023-01-29T07:03:52.224Z,92.21
2023-01-29T07:06:19.586Z,92.83
2023-01-29T07:08:46.457Z,93.05
2023-01-29T07:11:13.264Z,93.09
2023-01-29T07:13:39.817Z,92.25
2023-01-29T07:16:07.587Z,91.20
2023-01-29T07:18:34.168Z,91.30
2023-01-29T07:21:05.387Z,91.06
2023-01-29T07:23:31.964Z,91.78
2023-01-29T07:26:04.631Z,90.56
2023-01-29T07:28:31.505Z,89.50
2023-01-29T07:30:59.023Z,90.19
2023-01-29T07:33:26.060Z,91.00
2023-01-29T07:35:53.249Z,89.78
2023-01-29T07:38:20.324Z,91.92
2023-01-29T07:40:47.137Z,91.71
2023-01-29T07:43:13.787Z,91.07
2023-01-29T07:45:40.786Z,91.04
2023-01-29T07:48:10.496Z,90.63
2023-01-29T07:50:37.132Z,91.86
2023-01-29T07:53:04.012Z,90.98
2023-01-29T07:55:31.297Z,90.13
2023-01-29T07:57:59.249Z,90.92
2023-01-29T08:00:25.892Z,90.89
2023-01-29T08:02:52.664Z,91.18
2023-01-29T08:05:19.562Z,91.05
2023-01-29T08:07:51.586Z,91.39
2023-01-29T08:10:24.363Z,91.39
2023-01-29T08:12:59.388Z,92.47
2023-01-29T08:15:26.351Z,90.72
2023-01-29T08:17:58.063Z,91.47
2023-01-29T08:20:25.135Z,90.13
2023-01-29T08:23:01.923Z,91.39
2023-01-29T08:25:29.450Z,92.62
2023-01-29T08:27:57.870Z,91.98
2023-01-29T08:30:26.378Z,91.58
2023-01-29T08:32:52.922Z,91.19
2023-01-29T08:35:19.859Z,89.87
2023-01-29T08:37:59.902Z,89.45
2023-01-29T08:40:34.203Z,90.21
2023-01-29T08:43:03.098Z,91.00
2023-01-29T08:45:34.324Z,90.74
2023-01-29T08:48:01.199Z,88.98
2023-01-29T08:50:30.060Z,89.80
2023-01-29T08:53:00.667Z,89.23
2023-01-29T08:55:28.350Z,89.40
2023-01-29T08:57:57.342Z,87.88
2023-01-29T09:00:24.063Z,86.63
2023-01-29T09:02:50.653Z,83.40
2023-01-29T09:05:17.747Z,82.69
2023-01-29T09:07:44.535Z,83.96
2023-01-29T09:10:12.250Z,84.00
2023-01-29T09:12:38.882Z,82.67
2023-01-29T09:15:05.768Z,81.57
2023-01-29T09:17:32.335Z,78.85
2023-01-29T09:19:59.041Z,77.40
2023-01-29T09:22:25.674Z,77.78
2023-01-29T09:24:52.259Z,75.63
2023-01-29T09:27:18.852Z,78.45
2023-01-29T09:29:45.458Z,78.08
2023-01-29T09:32:12.043Z,78.21
2023-01-29T09:34:38.610Z,77.80
2023-01-29T09:37:05.215Z,78.78
2023-01-29T09:39:31.738Z,79.91
2023-01-29T09:41:58.304Z,79.35
2023-01-29T09:44:34.113Z,81.13
2023-01-29T09:47:05.099Z,78.58
2023-01-29T09:49:37.967Z,76.46
2023-01-29T09:52:17.607Z,78.99
2023-01-29T09:54:52.915Z,78.63
2023-01-29T09:57:30.764Z,77.01
2023-01-29T09:59:57.340Z,77.63
2023-01-29T10:03:00.689Z,77.82
2023-01-29T10:05:39.330Z,79.53
2023-01-29T10:08:28.397Z,76.40
2023-01-29T10:11:10.392Z,75.76
2023-01-29T10:13:57.049Z,74.35
2023-01-29T10:16:47.077Z,75.37
2023-01-29T10:19:22.893Z,77.73
2023-01-29T10:22:17.554Z,74.91
2023-01-29T10:24:50.053Z,75.45
2023-01-29T10:27:18.628Z,75.13
2023-01-29T10:29:49.045Z,75.32
2023-01-29T10:32:23.637Z,72.93
2023-01-29T10:35:02.605Z,73.99
2023-01-29T10:37:41.782Z,74.78
2023-01-29T10:40:17.242Z,73.07
2023-01-29T10:42:52.972Z,74.78
2023-01-29T10:45:30.512Z,73.04
2023-01-29T10:48:24.345Z,73.91
2023-01-29T10:51:06.782Z,74.29
2023-01-29T10:53:57.901Z,75.16
2023-01-29T10:56:24.375Z,74.28
2023-01-29T10:58:58.989Z,74.72
2023-01-29T11:01:26.921Z,73.70
2023-01-29T11:04:00.932Z,74.47
2023-01-29T11:06:36.028Z,75.91
2023-01-29T11:09:20.363Z,76.42
2023-01-29T11:11:54.616Z,74.45
2023-01-29T11:14:29.966Z,75.57
2023-01-29T11:16:56.637Z,75.38
2023-01-29T11:19:36.673Z,75.12
2023-01-29T11:22:04.450Z,73.61
2023-01-29T11:24:31.117Z,73.98
2023-01-29T11:27:00.098Z,74.65
2023-01-29T11:29:32.105Z,71.66
2023-01-29T11:32:00.220Z,74.40
2023-01-29T11:34:32.733Z,73.50
2023-01-29T11:37:04.692Z,73.82
2023-01-29T11:39:32.491Z,74.08
2023-01-29T11:42:04.242Z,73.26
2023-01-29T11:44:40.115Z,73.04
2023-01-29T11:47:27.464Z,72.60
2023-01-29T11:49:56.734Z,72.04
2023-01-29T11:52:43.617Z,73.36
2023-01-29T11:55:23.744Z,74.53
2023-01-29T11:57:54.480Z,71.71
2023-01-29T12:00:21.222Z,71.15
2023-01-29T12:02:52.990Z,72.55
2023-01-29T12:05:22.851Z,73.00
2023-01-29T12:07:56.246Z,73.95
2023-01-29T12:10:36.639Z,73.10
2023-01-29T12:13:23.984Z,73.96
2023-01-29T12:16:10.969Z,75.77
2023-01-29T12:18:46.877Z,74.93
2023-01-29T12:21:32.257Z,73.42
2023-01-29T12:24:12.136Z,74.29
2023-01-29T12:26:48.168Z,76.16
2023-01-29T12:29:36.088Z,75.05
2023-01-29T12:32:44.305Z,73.09
2023-01-29T12:35:21.837Z,75.43
2023-01-29T12:38:08.623Z,74.73
2023-01-29T12:40:42.999Z,74.65
2023-01-29T12:43:31.717Z,73.66
2023-01-29T12:46:01.261Z,74.06
2023-01-29T12:48:34.325Z,75.59
2023-01-29T12:51:16.262Z,74.77
2023-01-29T12:53:55.199Z,73.51
2023-01-29T12:56:56.048Z,74.86
2023-01-29T12:59:36.396Z,77.34
2023-01-29T13:02:11.359Z,77.12
2023-01-29T13:04:51.625Z,76.02
2023-01-29T13:07:28.748Z,75.96
2023-01-29T13:10:00.002Z,76.76
2023-01-29T13:12:27.949Z,74.51
2023-01-29T13:14:59.050Z,74.07
2023-01-29T13:17:48.553Z,73.32
2023-01-29T13:20:24.323Z,73.06
2023-01-29T13:22:54.541Z,74.59
2023-01-29T13:25:21.722Z,73.12
2023-01-29T13:27:49.223Z,73.67
2023-01-29T13:30:28.289Z,72.91
2023-01-29T13:33:09.293Z,74.66
2023-01-29T13:35:46.351Z,75.39
2023-01-29T13:38:38.985Z,74.09
2023-01-29T13:41:08.783Z,73.96
2023-01-29T13:43:43.471Z,72.96
2023-01-29T13:46:18.436Z,73.84
2023-01-29T13:48:48.471Z,73.73
2023-01-29T13:51:20.249Z,74.79
2023-01-29T13:54:00.756Z,74.58
2023-01-29T13:56:33.078Z,75.18
2023-01-29T13:59:05.384Z,75.79
2023-01-29T14:01:47.167Z,75.31
2023-01-29T14:04:26.212Z,75.58
2023-01-29T14:06:57.452Z,75.41
2023-01-29T14:09:38.954Z,75.66
2023-01-29T14:12:25.541Z,75.52
2023-01-29T14:15:04.736Z,75.61
2023-01-29T14:17:31.820Z,76.04
2023-01-29T14:20:04.204Z,75.00
2023-01-29T14:22:33.814Z,74.94
2023-01-29T14:25:05.048Z,75.24
2023-01-29T14:27:32.960Z,75.63
2023-01-29T14:30:02.385Z,75.06
2023-01-29T14:32:29.884Z,75.03
2023-01-29T14:35:19.279Z,75.81
2023-01-29T14:37:49.182Z,76.78
2023-01-29T14:40:23.755Z,76.21
2023-01-29T14:42:55.455Z,75.99
2023-01-29T14:45:32.208Z,75.89
2023-01-29T14:48:01.585Z,75.37
2023-01-29T14:50:34.903Z,76.34
2023-01-29T14:53:24.519Z,76.83
2023-01-29T14:56:25.658Z,77.07
2023-01-29T14:58:57.277Z,76.68
2023-01-29T15:01:30.859Z,78.08
2023-01-29T15:04:06.554Z,76.71
2023-01-29T15:06:41.849Z,78.00
2023-01-29T15:09:17.535Z,78.03
2023-01-29T15:11:58.377Z,79.35
2023-01-29T15:14:31.916Z,79.59
2023-01-29T15:17:36.182Z,80.00
2023-01-29T15:20:22.699Z,78.82
2023-01-29T15:22:49.235Z,78.71
2023-01-29T15:25:19.241Z,78.14
2023-01-29T15:27:46.278Z,77.79
2023-01-29T15:30:22.744Z,77.81
2023-01-29T15:32:49.891Z,78.63
2023-01-29T15:35:37.661Z,78.73
2023-01-29T15:38:17.116Z,77.77
2023-01-29T15:41:14.064Z,78.86
2023-01-29T15:43:44.855Z,78.17
2023-01-29T15:46:24.918Z,78.37
2023-01-29T15:48:53.705Z,77.31
2023-01-29T15:51:22.776Z,78.14
2023-01-29T15:53:53.418Z,78.08
2023-01-29T15:56:53.357Z,77.44
2023-01-29T15:59:26.604Z,77.35
2023-01-29T16:01:54.102Z,77.31
2023-01-29T16:04:28.796Z,77.35
2023-01-29T16:06:56.416Z,77.83
2023-01-29T16:09:26.049Z,78.44
2023-01-29T16:11:54.389Z,77.68
2023-01-29T16:14:25.529Z,78.51
2023-01-29T16:16:52.545Z,78.78
2023-01-29T16:19:23.828Z,77.91
2023-01-29T16:22:00.880Z,78.06
2023-01-29T16:24:27.919Z,78.90
2023-01-29T16:27:02.127Z,78.76
2023-01-29T16:29:36.006Z,78.80
2023-01-29T16:32:03.666Z,78.52
2023-01-29T16:34:33.067Z,79.43
2023-01-29T16:37:02.830Z,78.67
2023-01-29T16:39:36.592Z,78.28
2023-01-29T16:42:21.198Z,79.26
2023-01-29T16:44:56.853Z,78.05
2023-01-29T16:47:31.491Z,78.98
2023-01-29T16:50:46.440Z,78.77
2023-01-29T16:53:23.320Z,78.55
2023-01-29T16:55:52.602Z,77.89
2023-01-29T16:58:28.406Z,78.38
2023-01-29T17:01:05.097Z,79.21
2023-01-29T17:03:33.803Z,78.89
2023-01-29T17:06:10.823Z,77.83
2023-01-29T17:08:38.151Z,77.80
2023-01-29T17:11:05.153Z,77.62
2023-01-29T17:13:31.815Z,78.59
2023-01-29T17:16:03.639Z,78.31
2023-01-29T17:18:30.757Z,77.66
2023-01-29T17:20:57.354Z,77.89
2023-01-29T17:23:24.000Z,77.96
2023-01-29T17:25:51.860Z,78.79
2023-01-29T17:28:18.724Z,78.50
2023-01-29T17:30:56.519Z,78.22
2023-01-29T17:33:31.872Z,78.65
2023-01-29T17:35:58.522Z,79.00
2023-01-29T17:38:26.720Z,80.00
2023-01-29T17:41:16.194Z,79.22
2023-01-29T17:43:44.202Z,78.36
2023-01-29T17:46:15.859Z,78.70
2023-01-29T17:48:42.664Z,77.95
2023-01-29T17:51:13.724Z,78.50
2023-01-29T17:53:46.088Z,79.00
2023-01-29T17:56:18.394Z,79.50
2023-01-29T17:58:45.297Z,79.18
2023-01-29T18:01:11.863Z,79.17
2023-01-29T18:03:38.685Z,79.37
2023-01-29T18:06:08.646Z,79.08
2023-01-29T18:08:38.216Z,78.93
2023-01-29T18:11:04.894Z,78.78
2023-01-29T18:13:31.922Z,79.40
2023-01-29T18:15:59.099Z,79.42
2023-01-29T18:18:25.716Z,78.61
2023-01-29T18:20:52.403Z,79.36
2023-01-29T18:23:19.505Z,79.14
2023-01-29T18:25:46.137Z,79.11
2023-01-29T18:28:17.312Z,77.95
2023-01-29T18:30:46.985Z,78.18
2023-01-29T18:33:14.178Z,78.36
2023-01-29T18:35:42.369Z,78.39
2023-01-29T18:38:08.911Z,79.09
2023-01-29T18:40:35.500Z,79.39
2023-01-29T18:43:03.030Z,78.38
2023-01-29T18:45:30.236Z,78.56
2023-01-29T18:47:57.543Z,77.88
2023-01-29T18:50:26.294Z,78.39
2023-01-29T18:52:53.552Z,78.92
2023-01-29T18:55:20.587Z,78.66
2023-01-29T18:58:27.272Z,78.76
2023-01-29T19:00:33.619Z,78.17
2023-01-29T19:03:00.821Z,78.09
2023-01-29T19:05:27.426Z,78.29
2023-01-29T19:07:54.121Z,77.29
2023-01-29T19:10:20.660Z,77.54
2023-01-29T19:12:47.747Z,78.17
2023-01-29T19:15:14.880Z,77.45
2023-01-29T19:17:41.638Z,77.94
2023-01-29T19:20:09.715Z,77.53
2023-01-29T19:22:36.378Z,77.81
2023-01-29T19:25:02.960Z,77.86
2023-01-29T19:27:30.626Z,77.66
2023-01-29T19:29:58.247Z,77.79
2023-01-29T19:32:25.379Z,78.06
2023-01-29T19:34:51.977Z,77.91
2023-01-29T19:37:18.497Z,77.70
2023-01-29T19:39:45.439Z,77.09
2023-01-29T19:42:12.030Z,76.98
2023-01-29T19:44:40.065Z,77.06
2023-01-29T19:47:06.741Z,77.63
2023-01-29T19:49:34.167Z,78.29
2023-01-29T19:52:01.474Z,79.01
2023-01-29T19:54:28.058Z,78.93
2023-01-29T19:56:55.075Z,78.67
2023-01-29T19:59:21.705Z,79.33
2023-01-29T20:01:48.381Z,79.17
2023-01-29T20:04:15.268Z,78.34
2023-01-29T20:06:41.811Z,79.05
2023-01-29T20:09:08.706Z,79.52
2023-01-29T20:11:35.269Z,80.03
2023-01-29T20:14:02.021Z,79.71
2023-01-29T20:16:28.592Z,79.53
2023-01-29T20:18:55.246Z,79.64
2023-01-29T20:21:42.863Z,79.45
2023-01-29T20:24:13.123Z,79.27
2023-01-29T20:26:39.772Z,79.50
2023-01-29T20:29:06.596Z,79.95
2023-01-29T20:31:33.434Z,79.69
2023-01-29T20:34:00.122Z,80.36
2023-01-29T20:36:26.687Z,80.47
2023-01-29T20:38:53.333Z,80.73
2023-01-29T20:41:19.937Z,80.92
2023-01-29T20:43:47.343Z,80.69
2023-01-29T20:46:14.233Z,80.85
2023-01-29T20:48:42.135Z,80.85
2023-01-29T20:51:10.351Z,81.68
2023-01-29T20:53:37.450Z,81.67
2023-01-29T20:56:04.859Z,82.19
2023-01-29T20:58:32.004Z,81.93
2023-01-29T21:00:58.676Z,82.11
2023-01-29T21:03:25.427Z,82.86
2023-01-29T21:05:52.376Z,83.66
2023-01-29T21:08:18.923Z,83.83
2023-01-29T21:10:45.798Z,84.04
2023-01-29T21:13:12.596Z,85.61
2023-01-29T21:15:39.221Z,86.19
2023-01-29T21:18:06.716Z,86.76
2023-01-29T21:20:33.256Z,86.75
2023-01-29T21:22:59.843Z,86.05
2023-01-29T21:25:26.381Z,86.17
2023-01-29T21:27:52.881Z,85.60
2023-01-29T21:30:19.949Z,84.89
2023-01-29T21:32:46.697Z,85.97
2023-01-29T21:35:13.351Z,86.83
2023-01-29T21:37:39.868Z,86.57
2023-01-29T21:40:07.462Z,86.96
2023-01-29T21:42:52.428Z,86.83
2023-01-29T21:45:19.637Z,86.88
2023-01-29T21:47:46.247Z,86.39
2023-01-29T21:50:13.211Z,85.99
2023-01-29T21:52:39.784Z,86.47
2023-01-29T21:55:06.785Z,87.32
2023-01-29T21:57:33.479Z,87.50
2023-01-29T22:00:00.143Z,87.73
2023-01-29T22:02:30.811Z,87.88
2023-01-29T22:05:16.465Z,87.45
2023-01-29T22:07:45.090Z,88.07
2023-01-29T22:10:12.401Z,87.47
2023-01-29T22:12:39.495Z,87.00
2023-01-29T22:15:07.246Z,87.13
2023-01-29T22:17:34.041Z,87.00
2023-01-29T22:20:00.760Z,86.65
2023-01-29T22:22:27.300Z,86.87
2023-01-29T22:24:55.123Z,85.49
2023-01-29T22:27:21.694Z,85.25
2023-01-29T22:29:48.242Z,84.69
2023-01-29T22:32:14.929Z,85.18
2023-01-29T22:34:41.533Z,85.98
2023-01-29T22:37:08.832Z,86.58
2023-01-29T22:39:35.343Z,87.23
2023-01-29T22:42:02.021Z,87.67
2023-01-29T22:44:28.595Z,88.00
2023-01-29T22:46:55.204Z,87.29
2023-01-29T22:49:23.087Z,86.79
2023-01-29T22:52:09.548Z,86.55
2023-01-29T22:54:37.997Z,85.95
2023-01-29T22:57:04.912Z,86.39
2023-01-29T22:59:32.057Z,86.10
2023-01-29T23:01:58.780Z,86.45
2023-01-29T23:04:25.397Z,87.48
2023-01-29T23:06:51.978Z,86.95
2023-01-29T23:09:18.565Z,87.75
2023-01-29T23:11:45.108Z,87.26
2023-01-29T23:14:11.682Z,87.71
2023-01-29T23:16:38.208Z,86.13
2023-01-29T23:19:04.860Z,85.70
2023-01-29T23:21:31.363Z,85.34
2023-01-29T23:24:01.285Z,85.33
2023-01-29T23:26:47.954Z,83.69
2023-01-29T23:29:14.807Z,81.93
2023-01-29T23:31:41.469Z,85.25
2023-01-29T23:34:08.086Z,84.89
2023-01-29T23:36:34.728Z,84.76
2023-01-29T23:39:01.256Z,85.76
2023-01-29T23:41:27.819Z,86.38
2023-01-29T23:43:54.387Z,86.17
2023-01-29T23:46:21.061Z,86.00
2023-01-29T23:48:47.712Z,85.76
2023-01-29T23:51:14.261Z,87.50
2023-01-29T23:53:41.135Z,87.95
2023-01-29T23:56:08.194Z,87.88
2023-01-29T23:58:35.046Z,87.33
